createdAt,value
2017-04-04T04:25:21.916Z,71.95
2017-04-04T04:26:10.129Z,71.85
2017-04-04T04:26:59.125Z,72.04
2017-04-04T04:27:47.574Z,72.04
2017-04-04T04:28:36.107Z,72.23
2017-04-04T04:29:25.253Z,71.95
2017-04-04T04:30:14.702Z,72.33
2017-04-04T04:31:03.284Z,72.33
2017-04-04T04:31:52.102Z,72.33
2017-04-04T04:32:41.032Z,72.23
2017-04-04T04:33:31.662Z,72.8
2017-04-04T04:34:18.546Z,72.71
2017-04-04T04:35:08.842Z,72.61
2017-04-04T04:35:58.481Z,72.89
2017-04-04T04:36:47.873Z,72.8
2017-04-04T04:37:36.199Z,73.18
2017-04-04T04:38:25.447Z,73.08
2017-04-04T04:39:14.576Z,72.99
2017-04-04T04:40:03.609Z,72.89
2017-04-04T04:40:52.063Z,72.89
2017-04-04T04:41:40.958Z,72.89
2017-04-04T04:42:29.599Z,72.89
2017-04-04T04:43:19.132Z,73.08
2017-04-04T04:44:07.495Z,73.18
2017-04-04T04:44:56.387Z,73.08
2017-04-04T04:45:44.763Z,72.89
2017-04-04T04:46:34.121Z,72.8
2017-04-04T04:47:22.248Z,72.89
2017-04-04T04:48:10.955Z,72.89
2017-04-04T04:48:59.921Z,72.8
2017-04-04T04:49:48.375Z,72.8
2017-04-04T04:50:36.669Z,73.18
2017-04-04T04:51:26.143Z,73.18
2017-04-04T04:52:14.919Z,73.08
2017-04-04T04:53:03.918Z,73.08
2017-04-04T04:55:27.326Z,72.99
2017-04-04T04:56:18.542Z,72.99
2017-04-04T04:57:12.822Z,73.37
2017-04-04T04:58:04.877Z,73.37
2017-04-04T05:00:29.437Z,73.46
2017-04-04T05:01:19.118Z,74.13
2017-04-04T05:02:08.692Z,74.03
2017-04-04T05:02:57.125Z,73.94
2017-04-04T05:03:45.866Z,74.22
2017-04-04T05:04:34.177Z,74.13
2017-04-04T05:05:23.092Z,74.22
2017-04-04T05:06:11.478Z,73.94
2017-04-04T05:07:00.283Z,74.13
2017-04-04T05:07:48.866Z,73.65
2017-04-04T05:08:37.845Z,73.27
2017-04-04T05:09:26.248Z,73.46
2017-04-04T05:10:14.603Z,73.46
2017-04-04T05:11:03.411Z,73.46
2017-04-04T05:11:52.570Z,72.99
2017-04-04T05:12:41.416Z,73.27
2017-04-04T05:13:29.996Z,73.56
2017-04-04T05:14:18.736Z,73.56
2017-04-04T05:15:07.095Z,73.46
2017-04-04T05:15:55.911Z,73.37
2017-04-04T05:16:44.889Z,74.32
2017-04-04T05:17:33.149Z,73.75
2017-04-04T05:18:22.323Z,74.22
2017-04-04T05:19:10.899Z,73.84
2017-04-04T05:19:59.742Z,74.03
2017-04-04T05:20:48.081Z,73.94
2017-04-04T05:21:36.926Z,74.22
2017-04-04T05:22:24.936Z,74.22
2017-04-04T05:23:13.887Z,74.22
2017-04-04T05:24:02.442Z,74.03
2017-04-04T05:24:51.075Z,73.84
2017-04-04T05:25:40.469Z,74.22
2017-04-04T05:26:30.457Z,73.88
2017-04-04T05:27:18.871Z,73.94
2017-04-04T05:28:07.354Z,74.22
2017-04-04T05:28:56.377Z,74.03
2017-04-04T05:29:44.602Z,74.03
2017-04-04T05:30:33.602Z,74.03
2017-04-04T05:31:22.025Z,74.03
2017-04-04T05:32:10.720Z,74.07
2017-04-04T05:32:59.759Z,74.16
2017-04-04T05:33:48.785Z,73.94
2017-04-04T05:34:37.379Z,74.73
2017-04-04T05:35:25.957Z,74.03
2017-04-04T05:36:14.812Z,74.26
2017-04-04T05:37:03.834Z,74.26
2017-04-04T05:37:52.376Z,73.97
2017-04-04T05:38:41.354Z,74.07
2017-04-04T05:39:29.577Z,73.97
2017-04-04T05:40:18.301Z,74.54
2017-04-04T05:41:08.047Z,74.54
2017-04-04T05:41:56.882Z,74.54
2017-04-04T05:42:46.008Z,74.07
2017-04-04T05:43:34.494Z,74.54
2017-04-04T05:44:23.462Z,74.35
2017-04-04T05:45:12.516Z,74.35
2017-04-04T05:46:02.075Z,74.45
2017-04-04T05:48:25.011Z,74.73
2017-04-04T05:49:13.832Z,74.64
2017-04-04T05:50:02.425Z,74.64
2017-04-04T05:50:51.124Z,74.54
2017-04-04T05:51:39.930Z,74.26
2017-04-04T05:52:28.092Z,74.73
2017-04-04T05:53:17.020Z,74.35
2017-04-04T05:54:05.889Z,74.54
2017-04-04T05:54:55.547Z,74.54
2017-04-04T05:55:44.013Z,74.07
2017-04-04T05:56:33.042Z,74.2
2017-04-04T05:57:21.637Z,73.88
2017-04-04T05:58:10.109Z,74.01
2017-04-04T05:58:58.517Z,73.79
2017-04-04T05:59:47.289Z,74.01
2017-04-04T06:00:35.678Z,73.92
2017-04-04T06:01:24.658Z,74.3
2017-04-04T06:02:12.919Z,74.2
2017-04-04T06:03:01.661Z,74.11
2017-04-04T06:03:50.409Z,74.3
2017-04-04T06:04:39.269Z,74.11
2017-04-04T06:05:27.699Z,74.01
2017-04-04T06:06:16.451Z,74.68
2017-04-04T06:07:05.382Z,74.11
2017-04-04T06:07:53.476Z,73.92
2017-04-04T06:08:42.485Z,74.2
2017-04-04T06:09:31.347Z,74.2
2017-04-04T06:10:20.022Z,73.72
2017-04-04T06:11:08.509Z,73.92
2017-04-04T06:11:57.294Z,74.11
2017-04-04T06:12:45.842Z,74.2
2017-04-04T06:13:34.731Z,74.11
2017-04-04T06:14:23.280Z,74.33
2017-04-04T06:15:11.967Z,74.24
2017-04-04T06:16:03.131Z,74.33
2017-04-04T06:16:52.658Z,74.24
2017-04-04T06:17:41.956Z,73.76
2017-04-04T06:18:31.914Z,73.57
2017-04-04T06:19:19.807Z,73.67
2017-04-04T06:20:09.133Z,73.57
2017-04-04T06:21:00.468Z,73.67
2017-04-04T06:21:51.139Z,73.52
2017-04-04T06:22:43.483Z,73.52
2017-04-04T06:23:36.502Z,73.33
2017-04-04T06:24:28.829Z,73.14
2017-04-04T06:25:19.163Z,73.14
2017-04-04T06:26:09.775Z,72.95
2017-04-04T06:26:58.691Z,72.41
2017-04-04T06:27:48.131Z,72.6
2017-04-04T06:28:37.260Z,72.89
2017-04-04T06:29:25.415Z,72.32
2017-04-04T06:30:17.494Z,72.22
2017-04-04T06:31:06.308Z,71.75
2017-04-04T06:31:56.614Z,72.16
2017-04-04T06:32:50.219Z,71.41
2017-04-04T06:33:42.347Z,72.07
2017-04-04T06:34:30.223Z,71.97
2017-04-04T06:35:22.308Z,71.78
2017-04-04T06:36:13.515Z,71.82
2017-04-04T06:37:03.482Z,71.25
2017-04-04T06:37:53.811Z,71.06
2017-04-04T06:38:46.968Z,71.15
2017-04-04T06:39:39.608Z,70.87
2017-04-04T06:42:18.560Z,70.52
2017-04-04T06:44:18.528Z,70.05
2017-04-04T06:45:07.388Z,70.18
2017-04-04T06:45:55.823Z,69.7
2017-04-04T06:46:44.702Z,69.51
2017-04-04T06:47:33.325Z,69.79
2017-04-04T06:48:22.097Z,69.04
2017-04-04T06:49:10.943Z,69.42
2017-04-04T06:49:59.310Z,68.98
2017-04-04T06:50:48.076Z,68.98
2017-04-04T06:51:36.633Z,68.59
2017-04-04T06:52:25.281Z,68.4
2017-04-04T06:53:14.019Z,68.12
2017-04-04T06:54:03.065Z,68.44
2017-04-04T06:54:51.709Z,68.82
2017-04-04T06:55:40.022Z,68.15
2017-04-04T06:56:28.868Z,68.05
2017-04-04T06:57:17.348Z,67.96
2017-04-04T06:58:08.506Z,67.8
2017-04-04T06:58:55.472Z,67.9
2017-04-04T06:59:44.314Z,67.42
2017-04-04T07:00:32.807Z,67.61
2017-04-04T07:01:21.812Z,66.85
2017-04-04T07:02:11.142Z,66.94
2017-04-04T07:02:59.885Z,67.04
2017-04-04T07:03:50.084Z,67.17
2017-04-04T07:04:38.516Z,66.98
2017-04-04T07:05:28.652Z,66.88
2017-04-04T07:06:17.805Z,66.6
2017-04-04T07:07:06.731Z,66.78
2017-04-04T07:07:55.652Z,66.6
2017-04-04T07:08:45.077Z,66.22
2017-04-04T07:09:35.117Z,66.44
2017-04-04T07:10:27.347Z,66.15
2017-04-04T07:11:14.196Z,65.96
2017-04-04T07:12:03.703Z,66.06
2017-04-04T07:12:54.585Z,65.96
2017-04-04T07:13:46.936Z,66.06
2017-04-04T07:14:34.527Z,66.25
2017-04-04T07:15:23.740Z,65.87
2017-04-04T07:16:11.640Z,65.48
2017-04-04T07:17:02.144Z,65.61
2017-04-04T07:17:50.968Z,65.42
2017-04-04T07:18:39.707Z,64.94
2017-04-04T07:19:29.270Z,65.14
2017-04-04T07:20:21.655Z,64.75
2017-04-04T07:21:10.181Z,64.75
2017-04-04T07:22:06.606Z,64.37
2017-04-04T07:22:55.964Z,64.31
2017-04-04T07:23:47.313Z,64.12
2017-04-04T07:25:52.229Z,63.73
2017-04-04T07:28:24.288Z,63.19
2017-04-04T07:30:30.005Z,62.9
2017-04-04T07:32:40.232Z,62.68
2017-04-04T07:33:33.230Z,62.97
2017-04-04T07:34:22.479Z,62.9
2017-04-04T07:35:16.479Z,62.71
2017-04-04T07:36:06.106Z,62.24
2017-04-04T07:36:57.423Z,62.14
2017-04-04T07:37:49.568Z,62.43
2017-04-04T07:38:44.566Z,61.57
2017-04-04T07:42:46.068Z,60.74
2017-04-04T07:44:53.286Z,60
2017-04-04T07:45:47.285Z,59.52
2017-04-04T07:46:35.768Z,59.52
2017-04-04T07:47:28.109Z,59.14
2017-04-04T07:48:20.460Z,58.88
2017-04-04T07:49:11.517Z,58.59
2017-04-04T07:50:01.725Z,58.59
2017-04-04T07:50:51.101Z,58.15
2017-04-04T07:51:42.214Z,57.86
2017-04-04T07:52:30.178Z,57.48
2017-04-04T07:53:19.521Z,57.48
2017-04-04T07:55:24.580Z,56.35
2017-04-04T07:56:16.834Z,56.26
2017-04-04T07:57:08.640Z,55.8
2017-04-04T07:57:58.189Z,55.71
2017-04-04T07:58:48.870Z,55.9
2017-04-04T07:59:38.375Z,55.13
2017-04-04T08:00:30.677Z,55.23
2017-04-04T08:01:20.341Z,54.58
2017-04-04T08:02:11.393Z,54.39
2017-04-04T08:03:03.276Z,54.58
2017-04-04T08:03:53.342Z,54.61
2017-04-04T08:04:45.052Z,54.61
2017-04-04T08:05:37.924Z,54.64
2017-04-04T08:06:30.763Z,54.19
2017-04-04T08:07:17.922Z,53.35
2017-04-04T08:08:11.403Z,52.51
2017-04-04T08:10:10.954Z,49.22
2017-04-04T08:10:59.489Z,47.7
2017-04-04T08:11:51.750Z,47.24
2017-04-04T08:12:41.007Z,46.4
2017-04-04T08:13:33.081Z,45.26
2017-04-04T08:14:24.388Z,44.63
2017-04-04T08:15:12.913Z,43.98
2017-04-04T08:16:09.054Z,43.03
2017-04-04T08:17:03.401Z,42
2017-04-04T08:17:57.411Z,40.89
2017-04-04T08:20:30.158Z,37.94
2017-04-04T08:21:39.113Z,36.89
2017-04-04T08:22:29.293Z,36.69
2017-04-04T08:23:23.156Z,36.13
2017-04-04T08:25:37.437Z,33.81
2017-04-04T08:26:32.538Z,33.41
2017-04-04T08:29:02.392Z,32.24
2017-04-04T08:29:50.723Z,32.24
2017-04-04T08:30:40.721Z,32.24
2017-04-04T08:31:35.683Z,31.66
2017-04-04T08:35:23.850Z,30.77
2017-04-04T08:36:11.818Z,30.58
2017-04-04T08:38:25.376Z,30.38
2017-04-04T15:49:59.998Z,13.48
2017-04-04T15:50:48.961Z,12.9
2017-04-04T15:51:37.894Z,12.9
2017-04-04T15:52:27.325Z,13.2
2017-04-04T15:53:15.387Z,13.29
2017-04-04T15:54:03.443Z,13.1
2017-04-04T15:54:54.115Z,13
2017-04-04T15:55:42.609Z,13.29
2017-04-04T15:56:31.450Z,13.18
2017-04-04T15:57:20.965Z,12.99
2017-04-04T15:58:09.123Z,12.99
2017-04-04T15:59:01.776Z,13.48
2017-04-04T15:59:49.907Z,13.28
2017-04-04T16:00:39.657Z,13.28
2017-04-04T16:01:27.932Z,13.76
2017-04-04T16:02:17.028Z,13.57
2017-04-04T16:03:06.329Z,13.76
2017-04-04T16:03:54.830Z,13.76
2017-04-04T16:04:43.507Z,13.76
2017-04-04T16:05:32.352Z,13.76
2017-04-04T16:06:22.980Z,13.96
2017-04-04T16:07:11.268Z,13.67
2017-04-04T16:08:00.362Z,13.67
2017-04-04T16:08:50.642Z,13.38
2017-04-04T16:09:37.844Z,13.38
2017-04-04T16:10:27.427Z,13.18
2017-04-04T16:11:17.419Z,12.99
2017-04-04T16:12:06.432Z,12.99
2017-04-04T16:12:55.123Z,12.9
2017-04-04T16:13:44.216Z,12.99
2017-04-04T16:14:33.319Z,13.38
2017-04-04T16:15:21.853Z,13.18
2017-04-04T16:16:10.909Z,13.18
2017-04-04T16:17:00.633Z,13.09
2017-04-04T16:17:51.352Z,13.09
2017-04-04T16:18:41.481Z,12.99
2017-04-04T16:19:32.230Z,13.09
2017-04-04T16:20:23.232Z,12.9
2017-04-04T16:21:11.072Z,12.99
2017-04-04T16:22:01.120Z,12.99
2017-04-04T16:22:49.552Z,13.09
2017-04-04T16:23:40.299Z,13.48
2017-04-04T16:24:34.785Z,13.48
2017-04-04T16:25:24.793Z,13.28
2017-04-04T16:26:13.436Z,13.57
2017-04-04T16:27:03.435Z,13.28
2017-04-04T16:27:51.539Z,13.38
2017-04-04T16:28:42.452Z,13.28
2017-04-04T16:29:35.155Z,13.28
2017-04-04T16:30:25.616Z,13.28
2017-04-04T16:31:15.047Z,13.28
2017-04-04T16:32:05.304Z,13.38
2017-04-04T16:32:55.676Z,13.86
2017-04-04T16:33:45.858Z,13.67
2017-04-04T16:34:35.103Z,13.76
2017-04-04T17:05:20.476Z,15.67
2017-04-04T17:07:30.261Z,16.04
2017-04-04T17:08:20.893Z,15.85
2017-04-04T17:09:24.724Z,16.14
2017-04-04T17:10:17.201Z,15.85
2017-04-04T17:11:06.801Z,16.33
2017-04-04T17:11:59.648Z,16.04
2017-04-04T17:12:51.024Z,16.52
2017-04-04T17:13:54.342Z,16.71
2017-04-04T17:14:42.837Z,16.42
2017-04-04T17:16:49.635Z,16.71
2017-04-04T17:17:38.061Z,16.52
2017-04-04T17:18:27.138Z,16.9
2017-04-04T17:19:15.827Z,16.9
2017-04-04T17:20:04.110Z,16.9
2017-04-04T17:20:53.672Z,16.71
2017-04-04T17:21:41.811Z,16.52
2017-04-04T17:22:30.232Z,16.52
2017-04-04T17:23:19.823Z,16.52
2017-04-04T17:24:07.756Z,16.9
2017-04-04T17:24:57.127Z,16.71
2017-04-04T17:25:45.565Z,16.71
2017-04-04T17:26:34.588Z,16.8
2017-04-04T17:27:23.256Z,16.9
2017-04-04T17:28:11.563Z,16.99
2017-04-04T17:29:00.601Z,17.08
2017-04-04T17:29:49.145Z,17.18
2017-04-04T17:30:37.833Z,17.27
2017-04-04T17:31:26.629Z,16.99
2017-04-04T17:32:15.119Z,17.18
2017-04-04T17:33:04.054Z,17.08
2017-04-04T17:33:52.496Z,17.18
2017-04-04T17:34:42.293Z,17.27
2017-04-04T17:35:30.967Z,17.08
2017-04-04T17:36:19.682Z,17.37
2017-04-04T17:37:09.078Z,17.08
2017-04-04T17:37:57.632Z,17.47
2017-04-04T17:38:46.756Z,17.18
2017-04-04T17:39:35.604Z,17.56
2017-04-04T17:40:24.675Z,17.94
2017-04-04T17:41:12.967Z,18.42
2017-04-04T17:42:01.583Z,18.51
2017-04-04T17:42:50.649Z,18.71
2017-04-04T17:43:39.759Z,18.99
2017-04-04T17:44:28.295Z,19.67
2017-04-04T17:47:08.368Z,20.42
2017-04-04T17:48:03.238Z,20.98
2017-04-04T17:51:49.161Z,22.99
2017-04-04T17:53:49.351Z,24.03
2017-04-04T20:46:56.331Z,44.74
